sensor_id;sensor_type;location;lat;lon;timestamp;P1;durP1;ratioP1;P2;durP2;ratioP2
17763;SDS011;22245;52.832;13.816;2023-04-03T00:01:13;5.00;;;2.13;;
17763;SDS011;22245;52.832;13.816;2023-04-03T00:04:37;5.00;;;1.50;;
17763;SDS011;22245;52.832;13.816;2023-04-03T00:07:58;5.73;;;1.43;;
17763;SDS011;22245;52.832;13.816;2023-04-03T00:11:22;7.70;;;2.13;;
17763;SDS011;22245;52.832;13.816;2023-04-03T00:14:44;6.40;;;1.70;;
17763;SDS011;22245;52.832;13.816;2023-04-03T00:18:06;3.53;;;1.30;;
17763;SDS011;22245;52.832;13.816;2023-04-03T00:21:29;4.90;;;1.50;;
17763;SDS011;22245;52.832;13.816;2023-04-03T00:24:51;5.40;;;1.40;;
17763;SDS011;22245;52.832;13.816;2023-04-03T00:28:13;6.33;;;2.27;;
17763;SDS011;22245;52.832;13.816;2023-04-03T00:31:35;3.23;;;1.60;;
17763;SDS011;22245;52.832;13.816;2023-04-03T00:34:57;4.97;;;1.70;;
17763;SDS011;22245;52.832;13.816;2023-04-03T00:38:20;7.70;;;1.87;;
17763;SDS011;22245;52.832;13.816;2023-04-03T00:41:42;6.03;;;1.60;;
17763;SDS011;22245;52.832;13.816;2023-04-03T00:48:51;4.93;;;1.67;;
17763;SDS011;22245;52.832;13.816;2023-04-03T00:52:13;3.30;;;1.40;;
17763;SDS011;22245;52.832;13.816;2023-04-03T00:55:40;6.57;;;1.70;;
17763;SDS011;22245;52.832;13.816;2023-04-03T00:59:03;5.30;;;1.53;;
17763;SDS011;22245;52.832;13.816;2023-04-03T01:02:27;9.43;;;1.73;;
17763;SDS011;22245;52.832;13.816;2023-04-03T01:05:49;3.40;;;1.33;;
17763;SDS011;22245;52.832;13.816;2023-04-03T01:09:11;3.57;;;1.47;;
17763;SDS011;22245;52.832;13.816;2023-04-03T01:12:35;5.73;;;1.67;;
17763;SDS011;22245;52.832;13.816;2023-04-03T01:16:00;8.70;;;2.20;;
17763;SDS011;22245;52.832;13.816;2023-04-03T01:19:23;6.50;;;1.70;;
17763;SDS011;22245;52.832;13.816;2023-04-03T01:22:47;6.40;;;1.47;;
17763;SDS011;22245;52.832;13.816;2023-04-03T01:26:17;6.93;;;1.80;;
17763;SDS011;22245;52.832;13.816;2023-04-03T01:29:41;6.07;;;1.43;;
17763;SDS011;22245;52.832;13.816;2023-04-03T01:33:05;4.63;;;1.80;;
17763;SDS011;22245;52.832;13.816;2023-04-03T01:36:28;6.90;;;1.50;;
17763;SDS011;22245;52.832;13.816;2023-04-03T01:39:51;8.13;;;1.83;;
17763;SDS011;22245;52.832;13.816;2023-04-03T01:43:12;4.23;;;1.40;;
17763;SDS011;22245;52.832;13.816;2023-04-03T01:46:34;8.47;;;1.70;;
17763;SDS011;22245;52.832;13.816;2023-04-03T01:49:58;5.97;;;1.50;;
17763;SDS011;22245;52.832;13.816;2023-04-03T01:53:23;5.40;;;1.50;;
17763;SDS011;22245;52.832;13.816;2023-04-03T01:56:45;4.93;;;1.33;;
17763;SDS011;22245;52.832;13.816;2023-04-03T02:00:07;6.30;;;1.60;;
17763;SDS011;22245;52.832;13.816;2023-04-03T02:03:33;7.37;;;1.70;;
17763;SDS011;22245;52.832;13.816;2023-04-03T02:06:57;7.53;;;1.67;;
17763;SDS011;22245;52.832;13.816;2023-04-03T02:10:18;3.23;;;1.50;;
17763;SDS011;22245;52.832;13.816;2023-04-03T02:13:40;7.37;;;1.10;;
17763;SDS011;22245;52.832;13.816;2023-04-03T02:17:02;3.50;;;1.20;;
17763;SDS011;22245;52.832;13.816;2023-04-03T02:20:28;6.97;;;2.27;;
17763;SDS011;22245;52.832;13.816;2023-04-03T02:23:51;6.87;;;1.20;;
17763;SDS011;22245;52.832;13.816;2023-04-03T02:27:13;4.70;;;1.60;;
17763;SDS011;22245;52.832;13.816;2023-04-03T02:30:36;7.47;;;1.60;;
17763;SDS011;22245;52.832;13.816;2023-04-03T02:33:57;4.17;;;1.70;;
17763;SDS011;22245;52.832;13.816;2023-04-03T02:37:19;4.93;;;1.10;;
17763;SDS011;22245;52.832;13.816;2023-04-03T02:40:43;3.30;;;1.07;;
17763;SDS011;22245;52.832;13.816;2023-04-03T02:44:06;5.43;;;1.70;;
17763;SDS011;22245;52.832;13.816;2023-04-03T02:47:28;6.80;;;1.83;;
17763;SDS011;22245;52.832;13.816;2023-04-03T02:50:50;4.80;;;1.10;;
17763;SDS011;22245;52.832;13.816;2023-04-03T02:54:12;4.60;;;1.57;;
17763;SDS011;22245;52.832;13.816;2023-04-03T02:57:40;5.13;;;1.50;;
17763;SDS011;22245;52.832;13.816;2023-04-03T03:01:03;5.90;;;1.50;;
17763;SDS011;22245;52.832;13.816;2023-04-03T03:04:25;8.70;;;1.80;;
17763;SDS011;22245;52.832;13.816;2023-04-03T03:07:47;4.13;;;1.17;;
17763;SDS011;22245;52.832;13.816;2023-04-03T03:11:08;11.07;;;2.40;;
17763;SDS011;22245;52.832;13.816;2023-04-03T03:14:32;5.47;;;1.60;;
17763;SDS011;22245;52.832;13.816;2023-04-03T03:17:54;7.60;;;1.60;;
17763;SDS011;22245;52.832;13.816;2023-04-03T03:21:16;7.90;;;2.50;;
17763;SDS011;22245;52.832;13.816;2023-04-03T03:24:38;6.87;;;1.27;;
17763;SDS011;22245;52.832;13.816;2023-04-03T03:28:01;7.07;;;1.47;;
17763;SDS011;22245;52.832;13.816;2023-04-03T03:31:24;6.97;;;1.30;;
17763;SDS011;22245;52.832;13.816;2023-04-03T03:34:47;3.97;;;1.37;;
17763;SDS011;22245;52.832;13.816;2023-04-03T03:38:09;3.97;;;1.37;;
17763;SDS011;22245;52.832;13.816;2023-04-03T03:41:31;4.70;;;1.30;;
17763;SDS011;22245;52.832;13.816;2023-04-03T03:44:53;5.23;;;1.30;;
17763;SDS011;22245;52.832;13.816;2023-04-03T03:48:16;2.67;;;1.13;;
17763;SDS011;22245;52.832;13.816;2023-04-03T03:51:38;6.07;;;1.40;;
17763;SDS011;22245;52.832;13.816;2023-04-03T03:55:00;4.13;;;2.03;;
17763;SDS011;22245;52.832;13.816;2023-04-03T03:58:23;8.00;;;1.63;;
17763;SDS011;22245;52.832;13.816;2023-04-03T04:01:45;5.90;;;1.50;;
17763;SDS011;22245;52.832;13.816;2023-04-03T04:05:08;4.80;;;1.43;;
17763;SDS011;22245;52.832;13.816;2023-04-03T04:08:30;6.50;;;1.70;;
17763;SDS011;22245;52.832;13.816;2023-04-03T04:11:52;6.53;;;1.70;;
17763;SDS011;22245;52.832;13.816;2023-04-03T04:15:14;6.83;;;1.87;;
17763;SDS011;22245;52.832;13.816;2023-04-03T04:18:36;4.30;;;1.47;;
17763;SDS011;22245;52.832;13.816;2023-04-03T04:21:59;6.77;;;1.70;;
17763;SDS011;22245;52.832;13.816;2023-04-03T04:25:23;3.03;;;1.40;;
17763;SDS011;22245;52.832;13.816;2023-04-03T04:28:46;5.43;;;1.73;;
17763;SDS011;22245;52.832;13.816;2023-04-03T04:32:09;4.20;;;1.50;;
17763;SDS011;22245;52.832;13.816;2023-04-03T04:35:31;8.77;;;2.23;;
17763;SDS011;22245;52.832;13.816;2023-04-03T04:38:54;10.87;;;2.10;;
17763;SDS011;22245;52.832;13.816;2023-04-03T04:42:18;4.23;;;1.47;;
17763;SDS011;22245;52.832;13.816;2023-04-03T04:45:41;9.07;;;2.40;;
17763;SDS011;22245;52.832;13.816;2023-04-03T04:49:03;9.63;;;2.57;;
17763;SDS011;22245;52.832;13.816;2023-04-03T04:52:26;6.80;;;2.10;;
17763;SDS011;22245;52.832;13.816;2023-04-03T04:55:49;11.27;;;2.57;;
17763;SDS011;22245;52.832;13.816;2023-04-03T04:59:11;6.33;;;2.20;;
17763;SDS011;22245;52.832;13.816;2023-04-03T05:02:33;3.80;;;1.53;;
17763;SDS011;22245;52.832;13.816;2023-04-03T05:05:55;5.10;;;1.70;;
17763;SDS011;22245;52.832;13.816;2023-04-03T05:09:17;6.93;;;2.07;;
17763;SDS011;22245;52.832;13.816;2023-04-03T05:12:42;7.27;;;1.80;;
17763;SDS011;22245;52.832;13.816;2023-04-03T05:16:04;6.63;;;1.93;;
17763;SDS011;22245;52.832;13.816;2023-04-03T05:19:27;4.43;;;1.83;;
17763;SDS011;22245;52.832;13.816;2023-04-03T05:22:50;6.87;;;2.10;;
17763;SDS011;22245;52.832;13.816;2023-04-03T05:26:13;4.63;;;1.50;;
17763;SDS011;22245;52.832;13.816;2023-04-03T05:29:37;7.20;;;1.60;;
17763;SDS011;22245;52.832;13.816;2023-04-03T05:32:59;7.53;;;2.27;;
17763;SDS011;22245;52.832;13.816;2023-04-03T05:36:29;5.50;;;1.90;;
17763;SDS011;22245;52.832;13.816;2023-04-03T05:39:56;9.03;;;2.50;;
17763;SDS011;22245;52.832;13.816;2023-04-03T05:43:18;10.20;;;3.20;;
17763;SDS011;22245;52.832;13.816;2023-04-03T05:46:41;8.57;;;3.57;;
17763;SDS011;22245;52.832;13.816;2023-04-03T05:50:04;8.03;;;3.10;;
17763;SDS011;22245;52.832;13.816;2023-04-03T05:53:27;7.07;;;3.60;;
17763;SDS011;22245;52.832;13.816;2023-04-03T05:56:54;16.50;;;4.07;;
17763;SDS011;22245;52.832;13.816;2023-04-03T06:00:18;10.93;;;3.77;;
17763;SDS011;22245;52.832;13.816;2023-04-03T06:03:51;13.67;;;5.40;;
17763;SDS011;22245;52.832;13.816;2023-04-03T06:07:13;13.80;;;5.47;;
17763;SDS011;22245;52.832;13.816;2023-04-03T06:10:37;17.17;;;7.07;;
17763;SDS011;22245;52.832;13.816;2023-04-03T06:13:59;18.07;;;5.90;;
17763;SDS011;22245;52.832;13.816;2023-04-03T06:17:21;6.07;;;2.20;;
17763;SDS011;22245;52.832;13.816;2023-04-03T06:20:45;5.43;;;2.00;;
17763;SDS011;22245;52.832;13.816;2023-04-03T06:24:07;5.30;;;1.47;;
17763;SDS011;22245;52.832;13.816;2023-04-03T06:27:28;5.20;;;1.33;;
17763;SDS011;22245;52.832;13.816;2023-04-03T06:30:50;4.23;;;1.10;;
17763;SDS011;22245;52.832;13.816;2023-04-03T06:34:12;2.73;;;1.30;;
17763;SDS011;22245;52.832;13.816;2023-04-03T06:37:37;7.40;;;1.47;;
17763;SDS011;22245;52.832;13.816;2023-04-03T06:40:58;5.83;;;1.27;;
17763;SDS011;22245;52.832;13.816;2023-04-03T06:44:20;6.73;;;1.37;;
17763;SDS011;22245;52.832;13.816;2023-04-03T06:47:42;3.03;;;1.13;;
17763;SDS011;22245;52.832;13.816;2023-04-03T06:56:18;7.37;;;1.13;;
17763;SDS011;22245;52.832;13.816;2023-04-03T06:59:41;2.43;;;1.10;;
17763;SDS011;22245;52.832;13.816;2023-04-03T07:03:02;3.97;;;1.00;;
17763;SDS011;22245;52.832;13.816;2023-04-03T07:06:24;3.47;;;1.43;;
17763;SDS011;22245;52.832;13.816;2023-04-03T07:09:48;7.43;;;1.43;;
17763;SDS011;22245;52.832;13.816;2023-04-03T07:13:11;3.83;;;1.20;;
17763;SDS011;22245;52.832;13.816;2023-04-03T07:16:32;6.40;;;1.97;;
17763;SDS011;22245;52.832;13.816;2023-04-03T07:19:55;5.80;;;1.87;;
17763;SDS011;22245;52.832;13.816;2023-04-03T07:23:17;2.10;;;1.40;;
17763;SDS011;22245;52.832;13.816;2023-04-03T07:26:39;5.70;;;1.57;;
17763;SDS011;22245;52.832;13.816;2023-04-03T07:30:03;2.87;;;1.17;;
17763;SDS011;22245;52.832;13.816;2023-04-03T07:33:24;4.13;;;1.20;;
17763;SDS011;22245;52.832;13.816;2023-04-03T07:36:47;6.07;;;1.30;;
17763;SDS011;22245;52.832;13.816;2023-04-03T07:40:08;3.30;;;1.10;;
17763;SDS011;22245;52.832;13.816;2023-04-03T07:43:31;2.83;;;0.93;;
17763;SDS011;22245;52.832;13.816;2023-04-03T07:46:54;5.00;;;1.13;;
17763;SDS011;22245;52.832;13.816;2023-04-03T07:50:16;4.77;;;1.10;;
17763;SDS011;22245;52.832;13.816;2023-04-03T07:53:38;2.73;;;0.67;;
17763;SDS011;22245;52.832;13.816;2023-04-03T07:57:00;5.17;;;1.43;;
17763;SDS011;22245;52.832;13.816;2023-04-03T08:00:22;4.50;;;1.33;;
17763;SDS011;22245;52.832;13.816;2023-04-03T08:03:45;2.30;;;1.10;;
17763;SDS011;22245;52.832;13.816;2023-04-03T08:07:07;2.23;;;0.90;;
17763;SDS011;22245;52.832;13.816;2023-04-03T08:10:29;3.57;;;0.90;;
17763;SDS011;22245;52.832;13.816;2023-04-03T08:13:51;3.83;;;1.10;;
17763;SDS011;22245;52.832;13.816;2023-04-03T08:17:13;3.63;;;1.00;;
17763;SDS011;22245;52.832;13.816;2023-04-03T08:20:37;2.13;;;0.90;;
17763;SDS011;22245;52.832;13.816;2023-04-03T08:23:59;2.70;;;0.97;;
17763;SDS011;22245;52.832;13.816;2023-04-03T08:27:21;4.27;;;1.10;;
17763;SDS011;22245;52.832;13.816;2023-04-03T08:30:43;3.47;;;1.27;;
17763;SDS011;22245;52.832;13.816;2023-04-03T08:34:06;3.07;;;1.27;;
17763;SDS011;22245;52.832;13.816;2023-04-03T08:37:30;3.37;;;1.23;;
17763;SDS011;22245;52.832;13.816;2023-04-03T08:40:59;4.47;;;1.00;;
17763;SDS011;22245;52.832;13.816;2023-04-03T08:44:24;1.93;;;0.80;;
17763;SDS011;22245;52.832;13.816;2023-04-03T08:47:47;2.33;;;1.00;;
17763;SDS011;22245;52.832;13.816;2023-04-03T08:51:17;2.70;;;1.23;;
17763;SDS011;22245;52.832;13.816;2023-04-03T08:54:46;2.13;;;1.00;;
17763;SDS011;22245;52.832;13.816;2023-04-03T08:58:12;5.63;;;1.20;;
17763;SDS011;22245;52.832;13.816;2023-04-03T09:01:36;2.87;;;1.00;;
17763;SDS011;22245;52.832;13.816;2023-04-03T09:05:01;2.27;;;0.93;;
17763;SDS011;22245;52.832;13.816;2023-04-03T09:12:53;1.67;;;1.00;;
17763;SDS011;22245;52.832;13.816;2023-04-03T09:16:25;4.03;;;1.53;;
17763;SDS011;22245;52.832;13.816;2023-04-03T09:19:54;3.73;;;1.07;;
17763;SDS011;22245;52.832;13.816;2023-04-03T09:23:21;3.20;;;1.10;;
17763;SDS011;22245;52.832;13.816;2023-04-03T09:26:48;4.30;;;1.27;;
17763;SDS011;22245;52.832;13.816;2023-04-03T09:30:16;2.50;;;1.20;;
17763;SDS011;22245;52.832;13.816;2023-04-03T09:33:39;2.77;;;0.93;;
17763;SDS011;22245;52.832;13.816;2023-04-03T09:37:01;4.87;;;1.10;;
17763;SDS011;22245;52.832;13.816;2023-04-03T09:40:30;2.47;;;0.93;;
17763;SDS011;22245;52.832;13.816;2023-04-03T09:43:56;4.40;;;1.10;;
17763;SDS011;22245;52.832;13.816;2023-04-03T09:47:22;1.17;;;0.70;;
17763;SDS011;22245;52.832;13.816;2023-04-03T09:50:57;4.83;;;1.67;;
17763;SDS011;22245;52.832;13.816;2023-04-03T09:54:30;1.50;;;0.80;;
17763;SDS011;22245;52.832;13.816;2023-04-03T09:57:53;3.63;;;1.10;;
17763;SDS011;22245;52.832;13.816;2023-04-03T10:01:28;1.93;;;1.00;;
17763;SDS011;22245;52.832;13.816;2023-04-03T10:04:53;4.73;;;1.43;;
17763;SDS011;22245;52.832;13.816;2023-04-03T10:08:30;4.80;;;1.30;;
17763;SDS011;22245;52.832;13.816;2023-04-03T10:11:58;3.40;;;1.00;;
17763;SDS011;22245;52.832;13.816;2023-04-03T10:15:25;5.00;;;1.00;;
17763;SDS011;22245;52.832;13.816;2023-04-03T10:18:53;2.23;;;0.90;;
17763;SDS011;22245;52.832;13.816;2023-04-03T10:22:27;4.03;;;1.20;;
17763;SDS011;22245;52.832;13.816;2023-04-03T10:26:02;2.97;;;1.20;;
17763;SDS011;22245;52.832;13.816;2023-04-03T10:29:39;3.13;;;1.17;;
17763;SDS011;22245;52.832;13.816;2023-04-03T10:33:18;4.33;;;1.30;;
17763;SDS011;22245;52.832;13.816;2023-04-03T10:36:45;1.83;;;0.97;;
17763;SDS011;22245;52.832;13.816;2023-04-03T10:40:22;3.90;;;1.37;;
17763;SDS011;22245;52.832;13.816;2023-04-03T10:43:55;3.67;;;1.47;;
17763;SDS011;22245;52.832;13.816;2023-04-03T10:47:28;1.23;;;0.90;;
17763;SDS011;22245;52.832;13.816;2023-04-03T10:51:00;3.07;;;1.13;;
17763;SDS011;22245;52.832;13.816;2023-04-03T10:54:29;2.63;;;1.10;;
17763;SDS011;22245;52.832;13.816;2023-04-03T10:57:58;4.67;;;1.13;;
17763;SDS011;22245;52.832;13.816;2023-04-03T11:01:23;1.30;;;0.80;;
17763;SDS011;22245;52.832;13.816;2023-04-03T11:04:49;3.93;;;1.00;;
17763;SDS011;22245;52.832;13.816;2023-04-03T11:08:19;3.20;;;1.07;;
17763;SDS011;22245;52.832;13.816;2023-04-03T11:11:48;2.30;;;1.17;;
17763;SDS011;22245;52.832;13.816;2023-04-03T11:15:16;4.23;;;0.90;;
17763;SDS011;22245;52.832;13.816;2023-04-03T11:18:41;4.70;;;1.00;;
17763;SDS011;22245;52.832;13.816;2023-04-03T11:22:09;4.30;;;1.20;;
17763;SDS011;22245;52.832;13.816;2023-04-03T11:25:37;6.43;;;2.97;;
17763;SDS011;22245;52.832;13.816;2023-04-03T11:29:05;5.40;;;1.27;;
17763;SDS011;22245;52.832;13.816;2023-04-03T11:36:26;4.13;;;1.30;;
17763;SDS011;22245;52.832;13.816;2023-04-03T11:39:57;2.47;;;1.20;;
17763;SDS011;22245;52.832;13.816;2023-04-03T11:43:24;1.67;;;0.90;;
17763;SDS011;22245;52.832;13.816;2023-04-03T11:47:07;2.33;;;0.90;;
17763;SDS011;22245;52.832;13.816;2023-04-03T11:50:30;1.33;;;0.70;;
17763;SDS011;22245;52.832;13.816;2023-04-03T11:58:11;1.93;;;0.90;;
17763;SDS011;22245;52.832;13.816;2023-04-03T12:01:44;2.80;;;1.40;;
17763;SDS011;22245;52.832;13.816;2023-04-03T12:05:25;3.37;;;1.40;;
17763;SDS011;22245;52.832;13.816;2023-04-03T12:08:48;3.43;;;1.07;;
17763;SDS011;22245;52.832;13.816;2023-04-03T12:12:27;2.20;;;1.00;;
17763;SDS011;22245;52.832;13.816;2023-04-03T12:16:00;2.50;;;1.20;;
17763;SDS011;22245;52.832;13.816;2023-04-03T12:19:28;2.63;;;0.97;;
17763;SDS011;22245;52.832;13.816;2023-04-03T12:26:48;2.60;;;1.00;;
17763;SDS011;22245;52.832;13.816;2023-04-03T12:30:14;2.77;;;1.00;;
17763;SDS011;22245;52.832;13.816;2023-04-03T12:33:47;3.53;;;1.00;;
17763;SDS011;22245;52.832;13.816;2023-04-03T12:37:29;4.73;;;1.00;;
17763;SDS011;22245;52.832;13.816;2023-04-03T12:41:08;4.30;;;1.07;;
17763;SDS011;22245;52.832;13.816;2023-04-03T12:44:40;2.90;;;1.30;;
17763;SDS011;22245;52.832;13.816;2023-04-03T12:48:13;2.73;;;1.20;;
17763;SDS011;22245;52.832;13.816;2023-04-03T12:51:38;3.73;;;1.10;;
17763;SDS011;22245;52.832;13.816;2023-04-03T12:55:03;3.43;;;1.57;;
17763;SDS011;22245;52.832;13.816;2023-04-03T12:58:31;4.83;;;1.20;;
17763;SDS011;22245;52.832;13.816;2023-04-03T13:01:54;3.87;;;1.17;;
17763;SDS011;22245;52.832;13.816;2023-04-03T13:05:17;3.27;;;1.40;;
17763;SDS011;22245;52.832;13.816;2023-04-03T13:08:48;5.53;;;1.70;;
17763;SDS011;22245;52.832;13.816;2023-04-03T13:12:12;4.67;;;1.40;;
17763;SDS011;22245;52.832;13.816;2023-04-03T13:15:42;3.10;;;1.20;;
17763;SDS011;22245;52.832;13.816;2023-04-03T13:19:05;3.50;;;0.90;;
17763;SDS011;22245;52.832;13.816;2023-04-03T13:22:27;2.30;;;1.10;;
17763;SDS011;22245;52.832;13.816;2023-04-03T13:25:53;4.30;;;1.50;;
17763;SDS011;22245;52.832;13.816;2023-04-03T13:29:20;2.50;;;0.90;;
17763;SDS011;22245;52.832;13.816;2023-04-03T13:32:52;2.73;;;1.03;;
17763;SDS011;22245;52.832;13.816;2023-04-03T13:36:16;1.87;;;1.10;;
17763;SDS011;22245;52.832;13.816;2023-04-03T13:39:40;2.57;;;1.20;;
17763;SDS011;22245;52.832;13.816;2023-04-03T13:43:03;4.90;;;2.10;;
17763;SDS011;22245;52.832;13.816;2023-04-03T13:46:27;4.43;;;1.37;;
17763;SDS011;22245;52.832;13.816;2023-04-03T13:50:00;1.77;;;1.00;;
17763;SDS011;22245;52.832;13.816;2023-04-03T13:53:26;3.73;;;1.03;;
17763;SDS011;22245;52.832;13.816;2023-04-03T13:56:52;3.20;;;1.20;;
17763;SDS011;22245;52.832;13.816;2023-04-03T14:00:19;2.50;;;0.80;;
17763;SDS011;22245;52.832;13.816;2023-04-03T14:03:44;2.73;;;1.00;;
17763;SDS011;22245;52.832;13.816;2023-04-03T14:07:10;2.87;;;1.10;;
17763;SDS011;22245;52.832;13.816;2023-04-03T14:10:32;2.40;;;0.90;;
17763;SDS011;22245;52.832;13.816;2023-04-03T14:13:54;6.23;;;1.13;;
17763;SDS011;22245;52.832;13.816;2023-04-03T14:17:19;2.80;;;1.10;;
17763;SDS011;22245;52.832;13.816;2023-04-03T14:20:44;5.83;;;1.20;;
17763;SDS011;22245;52.832;13.816;2023-04-03T14:24:07;2.93;;;1.33;;
17763;SDS011;22245;52.832;13.816;2023-04-03T14:27:30;6.40;;;1.57;;
17763;SDS011;22245;52.832;13.816;2023-04-03T14:30:55;3.13;;;1.10;;
17763;SDS011;22245;52.832;13.816;2023-04-03T14:34:17;3.70;;;1.33;;
17763;SDS011;22245;52.832;13.816;2023-04-03T14:37:39;3.63;;;1.03;;
17763;SDS011;22245;52.832;13.816;2023-04-03T14:41:03;3.07;;;1.20;;
17763;SDS011;22245;52.832;13.816;2023-04-03T14:44:35;4.03;;;1.00;;
17763;SDS011;22245;52.832;13.816;2023-04-03T14:47:57;4.60;;;1.40;;
17763;SDS011;22245;52.832;13.816;2023-04-03T14:51:20;2.73;;;1.00;;
17763;SDS011;22245;52.832;13.816;2023-04-03T14:54:42;5.00;;;1.00;;
17763;SDS011;22245;52.832;13.816;2023-04-03T14:58:05;3.30;;;1.10;;
17763;SDS011;22245;52.832;13.816;2023-04-03T15:01:27;4.63;;;1.10;;
17763;SDS011;22245;52.832;13.816;2023-04-03T15:04:49;2.03;;;1.00;;
17763;SDS011;22245;52.832;13.816;2023-04-03T15:08:17;3.23;;;1.13;;
17763;SDS011;22245;52.832;13.816;2023-04-03T15:11:43;3.53;;;1.30;;
17763;SDS011;22245;52.832;13.816;2023-04-03T15:15:06;3.57;;;1.00;;
17763;SDS011;22245;52.832;13.816;2023-04-03T15:18:30;5.17;;;1.33;;
17763;SDS011;22245;52.832;13.816;2023-04-03T15:21:57;4.63;;;1.27;;
17763;SDS011;22245;52.832;13.816;2023-04-03T15:25:18;5.13;;;1.13;;
17763;SDS011;22245;52.832;13.816;2023-04-03T15:28:40;2.40;;;1.10;;
17763;SDS011;22245;52.832;13.816;2023-04-03T15:32:06;1.30;;;0.80;;
17763;SDS011;22245;52.832;13.816;2023-04-03T15:35:29;3.07;;;0.70;;
17763;SDS011;22245;52.832;13.816;2023-04-03T15:38:50;4.13;;;0.93;;
17763;SDS011;22245;52.832;13.816;2023-04-03T15:42:12;3.80;;;1.43;;
17763;SDS011;22245;52.832;13.816;2023-04-03T15:45:34;1.70;;;0.93;;
17763;SDS011;22245;52.832;13.816;2023-04-03T15:48:59;2.73;;;1.23;;
17763;SDS011;22245;52.832;13.816;2023-04-03T15:52:22;2.03;;;0.93;;
17763;SDS011;22245;52.832;13.816;2023-04-03T15:55:47;4.67;;;1.60;;
17763;SDS011;22245;52.832;13.816;2023-04-03T15:59:08;3.33;;;1.20;;
17763;SDS011;22245;52.832;13.816;2023-04-03T16:02:30;2.40;;;1.00;;
17763;SDS011;22245;52.832;13.816;2023-04-03T16:05:53;2.13;;;0.93;;
17763;SDS011;22245;52.832;13.816;2023-04-03T16:09:16;2.20;;;0.97;;
17763;SDS011;22245;52.832;13.816;2023-04-03T16:12:38;2.80;;;1.07;;
17763;SDS011;22245;52.832;13.816;2023-04-03T16:16:00;2.90;;;0.93;;
17763;SDS011;22245;52.832;13.816;2023-04-03T16:19:22;3.20;;;1.00;;
17763;SDS011;22245;52.832;13.816;2023-04-03T16:22:46;4.37;;;0.97;;
17763;SDS011;22245;52.832;13.816;2023-04-03T16:26:08;3.40;;;1.10;;
17763;SDS011;22245;52.832;13.816;2023-04-03T16:29:30;5.40;;;1.43;;
17763;SDS011;22245;52.832;13.816;2023-04-03T16:32:51;3.17;;;1.00;;
17763;SDS011;22245;52.832;13.816;2023-04-03T16:36:13;1.93;;;1.10;;
17763;SDS011;22245;52.832;13.816;2023-04-03T16:39:37;2.87;;;0.90;;
17763;SDS011;22245;52.832;13.816;2023-04-03T16:42:59;3.53;;;1.00;;
17763;SDS011;22245;52.832;13.816;2023-04-03T16:46:21;4.97;;;1.10;;
17763;SDS011;22245;52.832;13.816;2023-04-03T16:49:42;3.10;;;1.00;;
17763;SDS011;22245;52.832;13.816;2023-04-03T16:53:04;4.33;;;1.53;;
17763;SDS011;22245;52.832;13.816;2023-04-03T16:56:31;4.33;;;1.60;;
17763;SDS011;22245;52.832;13.816;2023-04-03T16:59:54;4.50;;;1.43;;
17763;SDS011;22245;52.832;13.816;2023-04-03T17:03:16;4.60;;;1.77;;
17763;SDS011;22245;52.832;13.816;2023-04-03T17:06:38;3.77;;;1.27;;
17763;SDS011;22245;52.832;13.816;2023-04-03T17:10:00;4.30;;;1.53;;
17763;SDS011;22245;52.832;13.816;2023-04-03T17:13:24;3.23;;;1.60;;
17763;SDS011;22245;52.832;13.816;2023-04-03T17:16:51;4.53;;;1.20;;
17763;SDS011;22245;52.832;13.816;2023-04-03T17:20:13;2.97;;;1.37;;
17763;SDS011;22245;52.832;13.816;2023-04-03T17:23:35;2.80;;;1.27;;
17763;SDS011;22245;52.832;13.816;2023-04-03T17:26:59;2.77;;;1.07;;
17763;SDS011;22245;52.832;13.816;2023-04-03T17:30:22;4.07;;;1.40;;
17763;SDS011;22245;52.832;13.816;2023-04-03T17:33:44;4.40;;;1.80;;
17763;SDS011;22245;52.832;13.816;2023-04-03T17:37:06;6.10;;;1.80;;
17763;SDS011;22245;52.832;13.816;2023-04-03T17:40:28;4.33;;;1.40;;
17763;SDS011;22245;52.832;13.816;2023-04-03T17:43:50;4.97;;;1.40;;
17763;SDS011;22245;52.832;13.816;2023-04-03T17:47:17;4.63;;;1.40;;
17763;SDS011;22245;52.832;13.816;2023-04-03T17:50:38;2.57;;;1.40;;
17763;SDS011;22245;52.832;13.816;2023-04-03T17:54:00;3.00;;;1.27;;
17763;SDS011;22245;52.832;13.816;2023-04-03T17:57:22;3.83;;;1.40;;
17763;SDS011;22245;52.832;13.816;2023-04-03T18:00:44;2.23;;;1.20;;
17763;SDS011;22245;52.832;13.816;2023-04-03T18:04:06;2.57;;;1.37;;
17763;SDS011;22245;52.832;13.816;2023-04-03T18:07:28;5.00;;;1.57;;
17763;SDS011;22245;52.832;13.816;2023-04-03T18:10:50;4.07;;;1.83;;
17763;SDS011;22245;52.832;13.816;2023-04-03T18:14:12;2.73;;;1.17;;
17763;SDS011;22245;52.832;13.816;2023-04-03T18:17:35;3.73;;;1.40;;
17763;SDS011;22245;52.832;13.816;2023-04-03T18:20:58;3.63;;;1.40;;
17763;SDS011;22245;52.832;13.816;2023-04-03T18:24:20;3.33;;;1.20;;
17763;SDS011;22245;52.832;13.816;2023-04-03T18:27:43;4.40;;;1.40;;
17763;SDS011;22245;52.832;13.816;2023-04-03T18:31:06;2.97;;;1.30;;
17763;SDS011;22245;52.832;13.816;2023-04-03T18:34:29;4.50;;;1.03;;
17763;SDS011;22245;52.832;13.816;2023-04-03T18:37:53;3.57;;;1.33;;
17763;SDS011;22245;52.832;13.816;2023-04-03T18:41:14;4.37;;;1.30;;
17763;SDS011;22245;52.832;13.816;2023-04-03T18:44:36;3.10;;;1.23;;
17763;SDS011;22245;52.832;13.816;2023-04-03T18:48:01;2.93;;;1.20;;
17763;SDS011;22245;52.832;13.816;2023-04-03T18:51:23;3.43;;;1.03;;
17763;SDS011;22245;52.832;13.816;2023-04-03T18:54:47;3.13;;;1.70;;
17763;SDS011;22245;52.832;13.816;2023-04-03T18:58:09;4.07;;;1.40;;
17763;SDS011;22245;52.832;13.816;2023-04-03T19:01:31;4.30;;;1.47;;
17763;SDS011;22245;52.832;13.816;2023-04-03T19:04:54;3.97;;;1.20;;
17763;SDS011;22245;52.832;13.816;2023-04-03T19:08:17;5.37;;;1.60;;
17763;SDS011;22245;52.832;13.816;2023-04-03T19:11:40;3.07;;;1.43;;
17763;SDS011;22245;52.832;13.816;2023-04-03T19:15:02;5.17;;;1.63;;
17763;SDS011;22245;52.832;13.816;2023-04-03T19:18:25;8.37;;;1.87;;
17763;SDS011;22245;52.832;13.816;2023-04-03T19:21:47;3.97;;;1.30;;
17763;SDS011;22245;52.832;13.816;2023-04-03T19:25:09;3.97;;;1.33;;
17763;SDS011;22245;52.832;13.816;2023-04-03T19:28:33;5.97;;;1.30;;
17763;SDS011;22245;52.832;13.816;2023-04-03T19:31:55;4.23;;;1.50;;
17763;SDS011;22245;52.832;13.816;2023-04-03T19:35:17;5.20;;;1.53;;
17763;SDS011;22245;52.832;13.816;2023-04-03T19:38:39;5.50;;;1.53;;
17763;SDS011;22245;52.832;13.816;2023-04-03T19:42:02;3.63;;;1.87;;
17763;SDS011;22245;52.832;13.816;2023-04-03T19:45:26;3.10;;;1.43;;
17763;SDS011;22245;52.832;13.816;2023-04-03T19:48:49;5.43;;;1.80;;
17763;SDS011;22245;52.832;13.816;2023-04-03T19:52:11;5.90;;;1.60;;
17763;SDS011;22245;52.832;13.816;2023-04-03T19:55:33;3.13;;;1.20;;
17763;SDS011;22245;52.832;13.816;2023-04-03T19:58:55;3.13;;;1.40;;
17763;SDS011;22245;52.832;13.816;2023-04-03T20:02:19;2.23;;;1.30;;
17763;SDS011;22245;52.832;13.816;2023-04-03T20:05:41;4.40;;;1.47;;
17763;SDS011;22245;52.832;13.816;2023-04-03T20:09:03;7.07;;;1.47;;
17763;SDS011;22245;52.832;13.816;2023-04-03T20:12:25;2.70;;;1.20;;
17763;SDS011;22245;52.832;13.816;2023-04-03T20:15:48;4.63;;;1.60;;
17763;SDS011;22245;52.832;13.816;2023-04-03T20:19:12;5.47;;;1.40;;
17763;SDS011;22245;52.832;13.816;2023-04-03T20:22:34;2.80;;;1.20;;
17763;SDS011;22245;52.832;13.816;2023-04-03T20:25:57;6.13;;;1.43;;
17763;SDS011;22245;52.832;13.816;2023-04-03T20:29:33;3.30;;;1.37;;
17763;SDS011;22245;52.832;13.816;2023-04-03T20:32:56;4.57;;;1.43;;
17763;SDS011;22245;52.832;13.816;2023-04-03T20:36:20;3.77;;;1.50;;